createdAt,value
2023-05-15T00:00:00.635Z,1.1
2023-05-15T00:01:00.645Z,1.1
2023-05-15T00:02:00.637Z,1.1
2023-05-15T00:03:00.704Z,1.1
2023-05-15T00:04:00.639Z,1.1
2023-05-15T00:05:00.739Z,1.1
2023-05-15T00:06:00.644Z,1.1
2023-05-15T00:07:00.635Z,1.1
2023-05-15T00:08:00.638Z,1.1
2023-05-15T00:09:00.651Z,1.1
2023-05-15T00:10:00.647Z,1.1
2023-05-15T00:11:02.174Z,1.1
2023-05-15T00:12:00.637Z,1.1
2023-05-15T00:13:00.649Z,1.1
2023-05-15T00:14:00.640Z,1.1
2023-05-15T00:15:00.647Z,1.1
2023-05-15T00:16:00.710Z,1.1
2023-05-15T00:17:00.684Z,1.1
2023-05-15T00:18:00.723Z,1.1
2023-05-15T00:19:00.822Z,1.1
2023-05-15T00:20:00.668Z,1.1
2023-05-15T00:21:00.646Z,1.1
2023-05-15T00:22:00.686Z,1.1
2023-05-15T00:23:00.636Z,1.1
2023-05-15T00:24:00.663Z,1.1
2023-05-15T00:25:00.675Z,1.1
2023-05-15T00:26:00.657Z,1.1
2023-05-15T00:27:00.650Z,1.1
2023-05-15T00:28:00.655Z,1.1
2023-05-15T00:29:00.661Z,1.1
2023-05-15T00:30:00.674Z,1.1
2023-05-15T00:31:00.711Z,1.1
2023-05-15T00:32:00.678Z,1.1
2023-05-15T00:33:00.784Z,1.1
2023-05-15T00:34:00.668Z,1.1
2023-05-15T00:35:00.721Z,1.1
2023-05-15T00:36:00.658Z,1.1
2023-05-15T00:37:00.673Z,1.1
2023-05-15T00:38:00.670Z,1.1
2023-05-15T00:39:00.689Z,1.1
2023-05-15T00:40:00.683Z,1.1
2023-05-15T00:41:00.676Z,1.1
2023-05-15T00:42:02.114Z,1.1
2023-05-15T00:43:00.698Z,1.1
2023-05-15T00:44:00.684Z,1.1
2023-05-15T00:45:00.691Z,1.1
2023-05-15T00:46:00.702Z,1.1
2023-05-15T00:47:00.770Z,1.1
2023-05-15T00:48:00.747Z,1.1
2023-05-15T00:49:00.687Z,1.1
2023-05-15T00:50:00.703Z,1.1
2023-05-15T00:51:00.707Z,1.1
2023-05-15T00:52:00.704Z,1.1
2023-05-15T00:53:00.690Z,1.1
2023-05-15T00:54:00.782Z,1.1
2023-05-15T00:55:00.699Z,1.1
2023-05-15T00:56:00.707Z,1.1
2023-05-15T00:57:00.696Z,1.1
2023-05-15T00:58:00.723Z,1.1
2023-05-15T00:59:00.725Z,1.1
2023-05-15T01:00:00.718Z,1.1
2023-05-15T01:01:00.749Z,1.1
2023-05-15T01:02:00.727Z,1.1
2023-05-15T01:03:00.870Z,1.1
2023-05-15T01:04:00.697Z,1.1
2023-05-15T01:05:00.721Z,1.1
2023-05-15T01:06:00.699Z,1.1
2023-05-15T01:07:00.699Z,1.1
2023-05-15T01:08:00.696Z,1.1
2023-05-15T01:09:00.705Z,1.1
2023-05-15T01:10:00.731Z,1.1
2023-05-15T01:11:00.709Z,1.1
2023-05-15T01:12:00.706Z,1.1
2023-05-15T01:13:00.654Z,1.1
2023-05-15T01:14:00.663Z,1.1
2023-05-15T01:15:00.608Z,1.1
2023-05-15T01:16:00.598Z,1.1
2023-05-15T01:17:00.543Z,1.1
2023-05-15T01:18:00.698Z,1.1
2023-05-15T01:19:00.521Z,1.1
2023-05-15T01:20:00.600Z,1.1
2023-05-15T01:21:00.430Z,1.1
2023-05-15T01:22:00.405Z,1.1
2023-05-15T01:23:00.364Z,1.1
2023-05-15T01:24:00.338Z,1.1
2023-05-15T01:25:00.348Z,1.1
2023-05-15T01:26:00.336Z,1.1
2023-05-15T01:27:00.345Z,1.1
2023-05-15T01:28:00.340Z,1.1
2023-05-15T01:29:00.344Z,1.1
2023-05-15T01:30:00.460Z,1.1
2023-05-15T01:31:00.347Z,1.1
2023-05-15T01:32:00.371Z,1.1
2023-05-15T01:33:00.400Z,1.1
2023-05-15T01:34:00.347Z,1.1
2023-05-15T01:35:00.365Z,1.1
2023-05-15T01:36:00.363Z,1.1
2023-05-15T01:37:00.358Z,1.1
2023-05-15T01:38:00.356Z,1.1
2023-05-15T01:39:00.364Z,1.1
2023-05-15T01:40:00.375Z,1.1
2023-05-15T01:41:00.360Z,1.1
2023-05-15T01:42:00.357Z,1.1
2023-05-15T01:43:00.358Z,1.1
2023-05-15T01:44:00.355Z,1.1
2023-05-15T01:45:00.372Z,1.1
2023-05-15T01:46:00.380Z,1.1
2023-05-15T01:47:00.361Z,1.1
2023-05-15T01:48:00.449Z,1.1
2023-05-15T01:49:00.370Z,1.1
2023-05-15T01:50:00.394Z,1.1
2023-05-15T01:51:00.366Z,1.1
2023-05-15T01:52:00.363Z,1.1
2023-05-15T01:53:00.381Z,1.1
2023-05-15T01:54:00.372Z,1.1
2023-05-15T01:55:00.368Z,1.1
2023-05-15T01:56:00.381Z,1.1
2023-05-15T01:57:00.369Z,1.1
2023-05-15T01:58:00.371Z,1.1
2023-05-15T01:59:00.378Z,1.1
2023-05-15T02:00:01.627Z,1.1
2023-05-15T02:01:01.485Z,1.1
2023-05-15T02:02:01.558Z,1.1
2023-05-15T02:03:01.604Z,1.1
2023-05-15T02:04:01.650Z,1.1
2023-05-15T02:05:01.515Z,1.1
2023-05-15T02:06:01.518Z,1.1
2023-05-15T02:07:01.497Z,1.1
2023-05-15T02:08:01.501Z,1.1
2023-05-15T02:09:01.502Z,1.1
2023-05-15T02:10:01.638Z,1.1
2023-05-15T02:11:01.502Z,1.1
2023-05-15T02:12:01.501Z,1.1
2023-05-15T02:13:01.527Z,1.1
2023-05-15T02:14:01.520Z,1.1
2023-05-15T02:15:01.517Z,1.1
2023-05-15T02:16:01.546Z,1.1
2023-05-15T02:17:01.511Z,1.1
2023-05-15T02:18:01.549Z,1.1
2023-05-15T02:19:01.572Z,1.1
2023-05-15T02:20:01.538Z,1.1
2023-05-15T02:21:01.520Z,1.1
2023-05-15T02:22:01.531Z,1.1
2023-05-15T02:23:01.524Z,1.1
2023-05-15T02:24:01.515Z,1.1
2023-05-15T02:25:01.517Z,1.1
2023-05-15T02:26:01.561Z,1.1
2023-05-15T02:27:01.523Z,1.1
2023-05-15T02:28:01.536Z,1.1
2023-05-15T02:29:01.529Z,1.1
2023-05-15T02:30:01.585Z,1.1
2023-05-15T02:31:01.523Z,1.1
2023-05-15T02:32:01.605Z,1.1
2023-05-15T02:33:01.671Z,1.1
2023-05-15T02:34:01.533Z,1.1
2023-05-15T02:35:01.546Z,1.1
2023-05-15T02:36:01.525Z,1.1
2023-05-15T02:37:01.524Z,1.1
2023-05-15T02:38:01.531Z,1.1
2023-05-15T02:39:01.591Z,1.1
2023-05-15T02:40:01.550Z,1.1
2023-05-15T02:41:01.542Z,1.1
2023-05-15T02:42:01.536Z,1.1
2023-05-15T02:43:01.538Z,1.1
2023-05-15T02:44:01.527Z,1.1
2023-05-15T02:45:01.574Z,1.1
2023-05-15T02:46:01.566Z,1.1
2023-05-15T02:47:01.536Z,1.1
2023-05-15T02:48:01.600Z,1.1
2023-05-15T02:49:01.537Z,1.1
2023-05-15T02:50:01.662Z,1.1
2023-05-15T02:51:01.559Z,1.1
2023-05-15T02:52:01.561Z,1.1
2023-05-15T02:53:01.569Z,1.1
2023-05-15T02:54:01.548Z,1.1
2023-05-15T02:55:01.612Z,1.1
2023-05-15T02:56:01.563Z,1.1
2023-05-15T02:57:01.538Z,1.1
2023-05-15T02:58:01.544Z,1.1
2023-05-15T02:59:01.563Z,1.1
2023-05-15T03:00:01.703Z,1.1
2023-05-15T03:01:01.576Z,1.1
2023-05-15T03:02:01.570Z,1.1
2023-05-15T03:03:01.587Z,1.1
2023-05-15T03:04:01.655Z,1.1
2023-05-15T03:05:02.182Z,1.1
2023-05-15T03:06:01.569Z,1.1
2023-05-15T03:07:01.574Z,1.1
2023-05-15T03:08:01.559Z,1.1
2023-05-15T03:09:01.562Z,1.1
2023-05-15T03:10:01.644Z,1.1
2023-05-15T03:11:01.565Z,1.1
2023-05-15T03:12:01.616Z,1.1
2023-05-15T03:13:01.581Z,1.1
2023-05-15T03:14:01.619Z,1.1
2023-05-15T03:15:01.689Z,1.1
2023-05-15T03:16:01.583Z,1.1
2023-05-15T03:17:01.655Z,1.1
2023-05-15T03:18:01.637Z,1.1
2023-05-15T03:19:01.606Z,1.1
2023-05-15T03:20:01.743Z,1.1
2023-05-15T03:21:01.575Z,1.1
2023-05-15T03:22:01.585Z,1.2
2023-05-15T03:23:01.595Z,1.3
2023-05-15T03:24:01.586Z,1.4
2023-05-15T03:25:01.605Z,1.6
2023-05-15T03:26:01.579Z,1.8
2023-05-15T03:27:01.592Z,2
2023-05-15T03:28:01.611Z,2.2
2023-05-15T03:29:01.596Z,2.5
2023-05-15T03:30:01.613Z,2.8
2023-05-15T03:31:01.644Z,3.1
2023-05-15T03:32:01.591Z,3.5
2023-05-15T03:33:01.626Z,4
2023-05-15T03:34:01.599Z,4.5
2023-05-15T03:35:01.615Z,5.3
2023-05-15T03:36:01.589Z,6.2
2023-05-15T03:37:01.588Z,7.1
2023-05-15T03:38:01.598Z,8
2023-05-15T03:39:01.594Z,9
2023-05-15T03:40:01.638Z,9.8
2023-05-15T03:41:01.615Z,10.4
2023-05-15T03:42:01.597Z,10.9
2023-05-15T03:43:01.604Z,11.5
2023-05-15T03:44:01.609Z,11.9
2023-05-15T03:45:01.624Z,12.3
2023-05-15T03:46:01.647Z,13.1
2023-05-15T03:47:01.743Z,14.2
2023-05-15T03:48:01.662Z,16.2
2023-05-15T03:49:01.606Z,18.3
2023-05-15T03:50:01.640Z,20.1
2023-05-15T03:51:01.607Z,21.1
2023-05-15T03:52:01.620Z,22.4
2023-05-15T03:53:01.630Z,24.4
2023-05-15T03:54:01.622Z,26.8
2023-05-15T03:55:01.640Z,29.1
2023-05-15T03:56:01.617Z,31.3
2023-05-15T03:57:01.622Z,35.3
2023-05-15T03:58:01.626Z,39.8
2023-05-15T03:59:01.619Z,45.4
2023-05-15T04:00:01.720Z,50.5
2023-05-15T04:01:01.614Z,55.6
2023-05-15T04:02:05.452Z,59
2023-05-15T04:03:01.747Z,63.4
2023-05-15T04:04:01.654Z,67.3
2023-05-15T04:05:01.650Z,72.3
2023-05-15T04:06:01.621Z,75.9
2023-05-15T04:07:01.632Z,79.6
2023-05-15T04:08:01.629Z,81.5
2023-05-15T04:09:01.626Z,83.5
2023-05-15T04:10:01.714Z,84.5
2023-05-15T04:11:01.639Z,86.5
2023-05-15T04:12:01.655Z,89.7
2023-05-15T04:13:01.655Z,93
2023-05-15T04:14:01.648Z,96.4
2023-05-15T04:15:01.773Z,99.9
2023-05-15T04:16:01.675Z,103.5
2023-05-15T04:17:01.651Z,108.6
2023-05-15T04:18:01.694Z,115.3
2023-05-15T04:19:01.715Z,119.5
2023-05-15T04:20:01.712Z,128.4
2023-05-15T04:21:01.642Z,138
2023-05-15T04:22:01.652Z,148.2
2023-05-15T04:23:01.651Z,157.4
2023-05-15T04:24:01.653Z,167.1
2023-05-15T04:25:01.719Z,175.2
2023-05-15T04:26:01.663Z,183.8
2023-05-15T04:27:01.686Z,192.8
2023-05-15T04:28:01.654Z,202.3
2023-05-15T04:29:04.305Z,214.8
2023-05-15T04:30:01.760Z,233.5
2023-05-15T04:31:01.664Z,260
2023-05-15T04:32:01.744Z,286.1
2023-05-15T04:33:01.673Z,311.1
2023-05-15T04:34:01.712Z,326.4
2023-05-15T04:35:01.657Z,330.3
2023-05-15T04:36:01.652Z,330.3
2023-05-15T04:37:01.653Z,322.5
2023-05-15T04:38:01.656Z,311.1
2023-05-15T04:39:01.652Z,296.6
2023-05-15T04:40:01.716Z,272.8
2023-05-15T04:41:01.682Z,244.9
2023-05-15T04:42:01.655Z,217.3
2023-05-15T04:43:01.689Z,186
2023-05-15T04:44:01.675Z,159.3
2023-05-15T04:45:01.677Z,139.6
2023-05-15T04:46:01.687Z,126.9
2023-05-15T04:47:01.658Z,119.5
2023-05-15T04:48:01.743Z,118.1
2023-05-15T04:49:01.668Z,121
2023-05-15T04:50:01.707Z,123.9
2023-05-15T04:51:01.683Z,125.4
2023-05-15T04:52:01.670Z,122.4
2023-05-15T04:53:01.672Z,118.1
2023-05-15T04:54:01.674Z,106
2023-05-15T04:55:01.696Z,111.2
2023-05-15T04:56:01.695Z,130
2023-05-15T04:57:01.687Z,141.3
2023-05-15T04:58:01.677Z,150
2023-05-15T04:59:01.675Z,159.3
2023-05-15T05:00:01.733Z,151.8
2023-05-15T05:01:03.639Z,108.6
2023-05-15T05:02:01.902Z,97.5
2023-05-15T05:03:01.750Z,103.5
2023-05-15T05:04:01.806Z,113.9
2023-05-15T05:05:01.713Z,125.4
2023-05-15T05:06:01.684Z,128.4
2023-05-15T05:07:01.690Z,107.3
2023-05-15T05:08:01.672Z,93
2023-05-15T05:09:01.688Z,107.3
2023-05-15T05:10:01.758Z,115.3
2023-05-15T05:11:01.681Z,128.4
2023-05-15T05:12:01.683Z,133.1
2023-05-15T05:13:01.684Z,126.9
2023-05-15T05:14:01.687Z,131.5
2023-05-15T05:15:01.690Z,131.5
2023-05-15T05:16:01.743Z,139.6
2023-05-15T05:17:01.692Z,133.1
2023-05-15T05:18:01.769Z,134.7
2023-05-15T05:19:01.757Z,139.6
2023-05-15T05:20:01.715Z,144.7
2023-05-15T05:21:01.689Z,144.7
2023-05-15T05:22:01.713Z,134.7
2023-05-15T05:23:01.700Z,113.9
2023-05-15T05:24:01.706Z,91.9
2023-05-15T05:25:01.726Z,65.7
2023-05-15T05:26:03.551Z,60.5
2023-05-15T05:27:01.717Z,61.9
2023-05-15T05:28:01.709Z,71.5
2023-05-15T05:29:01.705Z,74.1
2023-05-15T05:30:01.718Z,83.5
2023-05-15T05:31:01.766Z,89.7
2023-05-15T05:32:01.760Z,104.8
2023-05-15T05:33:01.736Z,141.3
2023-05-15T05:34:01.705Z,181.6
2023-05-15T05:35:01.764Z,197.5
2023-05-15T05:36:01.713Z,209.7
2023-05-15T05:37:01.729Z,230.7
2023-05-15T05:38:01.722Z,260
2023-05-15T05:39:01.720Z,289.6
2023-05-15T05:40:01.725Z,326.4
2023-05-15T05:41:01.717Z,367.8
2023-05-15T05:42:01.712Z,434.9
2023-05-15T05:43:01.723Z,526.6
2023-05-15T05:44:01.722Z,637.6
2023-05-15T05:45:01.723Z,753.8
2023-05-15T05:46:01.719Z,859.8
2023-05-15T05:47:01.765Z,934.9
2023-05-15T05:48:01.804Z,980.7
2023-05-15T05:49:01.761Z,1079.1
2023-05-15T05:50:01.726Z,1230.8
2023-05-15T05:51:01.723Z,1403.9
2023-05-15T05:52:01.738Z,1508.3
2023-05-15T05:53:01.739Z,1582.3
2023-05-15T05:54:01.728Z,1563.4
2023-05-15T05:55:01.746Z,1472.7
2023-05-15T05:56:01.755Z,1322.4
2023-05-15T05:57:01.754Z,1187.5
2023-05-15T05:58:03.331Z,1092.1
2023-05-15T05:59:01.768Z,1028.7
2023-05-15T06:00:01.764Z,1004.4
2023-05-15T06:01:01.758Z,1028.7
2023-05-15T06:02:01.787Z,1132
2023-05-15T06:03:01.852Z,1260.7
2023-05-15T06:04:01.923Z,1338.3
2023-05-15T06:05:01.754Z,1354.4
2023-05-15T06:06:01.752Z,1370.7
2023-05-15T06:07:01.766Z,1338.3
2023-05-15T06:08:01.753Z,1291.2
2023-05-15T06:09:01.753Z,1201.7
2023-05-15T06:10:01.811Z,1092.1
2023-05-15T06:11:01.752Z,992.5
2023-05-15T06:12:01.745Z,912.8
2023-05-15T06:13:01.737Z,870.2
2023-05-15T06:14:01.743Z,870.2
2023-05-15T06:15:01.745Z,912.8
2023-05-15T06:16:01.753Z,934.9
2023-05-15T06:17:01.851Z,934.9
2023-05-15T06:18:01.815Z,957.5
2023-05-15T06:19:01.831Z,1004.4
2023-05-15T06:20:01.801Z,1028.7
2023-05-15T06:21:01.754Z,1004.4
2023-05-15T06:22:01.775Z,934.9
2023-05-15T06:23:01.791Z,880.6
2023-05-15T06:24:01.757Z,829.5
2023-05-15T06:25:01.812Z,819.6
2023-05-15T06:26:01.809Z,870.2
2023-05-15T06:27:01.775Z,870.2
2023-05-15T06:28:01.766Z,829.5
2023-05-15T06:29:01.767Z,790.8
2023-05-15T06:30:01.827Z,781.4
2023-05-15T06:31:01.864Z,753.8
2023-05-15T06:32:01.911Z,800.3
2023-05-15T06:33:01.845Z,957.5
2023-05-15T06:34:01.782Z,1216.2
2023-05-15T06:35:01.786Z,1490.4
2023-05-15T06:36:01.802Z,1640
2023-05-15T06:37:01.785Z,1601.3
2023-05-15T06:38:01.785Z,1563.4
2023-05-15T06:39:01.769Z,1508.3
2023-05-15T06:40:01.805Z,1472.7
2023-05-15T06:41:01.813Z,1437.9
2023-05-15T06:42:01.806Z,1403.9
2023-05-15T06:43:01.785Z,1370.7
2023-05-15T06:44:01.805Z,1338.3
2023-05-15T06:45:01.800Z,1322.4
2023-05-15T06:46:01.860Z,1306.7
2023-05-15T06:47:01.985Z,1260.7
2023-05-15T06:48:02.165Z,1132
2023-05-15T06:49:01.795Z,1053.6
2023-05-15T06:50:01.881Z,1004.4
2023-05-15T06:51:01.797Z,992.5
2023-05-15T06:52:01.784Z,1028.7
2023-05-15T06:53:01.810Z,1145.6
2023-05-15T06:54:01.806Z,1338.3
2023-05-15T06:55:01.817Z,1563.4
2023-05-15T06:56:01.808Z,1699.9
2023-05-15T06:57:01.798Z,1762
2023-05-15T06:58:01.807Z,1938.9
2023-05-15T06:59:01.794Z,2159.2
2023-05-15T07:00:01.796Z,2159.2
2023-05-15T07:01:01.826Z,2238.1
2023-05-15T07:02:01.821Z,2159.2
2023-05-15T07:03:01.857Z,2058.4
2023-05-15T07:04:01.799Z,1962.2
2023-05-15T07:05:01.853Z,1893.1
2023-05-15T07:06:01.816Z,1870.6
2023-05-15T07:07:01.826Z,2009.8
2023-05-15T07:08:01.819Z,2133.6
2023-05-15T07:09:01.817Z,2159.2
2023-05-15T07:10:01.863Z,2108.2
2023-05-15T07:11:01.810Z,1985.8
2023-05-15T07:12:01.805Z,1985.8
2023-05-15T07:13:01.822Z,2009.8
2023-05-15T07:14:00.395Z,1893.1
2023-05-15T07:15:00.397Z,2058.4
2023-05-15T07:16:00.407Z,2159.2
2023-05-15T07:17:00.441Z,2522.4
2023-05-15T07:18:00.439Z,2775.6
2023-05-15T07:19:00.420Z,2742.6
2023-05-15T07:20:00.436Z,2677.9
2023-05-15T07:21:00.399Z,2842.8
2023-05-15T07:22:02.485Z,3165.8
2023-05-15T07:23:00.403Z,3321.1
2023-05-15T07:24:00.403Z,3242.6
2023-05-15T07:25:00.400Z,2911.7
2023-05-15T07:26:00.403Z,2775.6
2023-05-15T07:27:00.422Z,2710.1
2023-05-15T07:28:00.409Z,2809
2023-05-15T07:29:00.690Z,3018
2023-05-15T07:30:00.435Z,3128.2
2023-05-15T07:31:02.767Z,3242.6
2023-05-15T07:32:00.467Z,3361
2023-05-15T07:33:00.470Z,3401.4
2023-05-15T07:34:00.422Z,3321.1
2023-05-15T07:35:00.417Z,3281.6
2023-05-15T07:36:00.418Z,3091.1
2023-05-15T07:37:00.421Z,3128.2
2023-05-15T07:38:00.436Z,3204.1
2023-05-15T07:39:00.438Z,3128.2
2023-05-15T07:40:00.487Z,3204.1
2023-05-15T07:41:00.431Z,3018
2023-05-15T07:42:00.452Z,2911.7
2023-05-15T07:43:00.425Z,2809
2023-05-15T07:44:00.433Z,2842.8
2023-05-15T07:45:00.556Z,2842.8
2023-05-15T07:46:00.489Z,2877.1
2023-05-15T07:47:00.427Z,2911.7
2023-05-15T07:48:00.449Z,2842.8
2023-05-15T07:49:00.518Z,2646
2023-05-15T07:50:00.466Z,2552.8
2023-05-15T07:51:00.481Z,2492.4
2023-05-15T07:52:00.482Z,2492.4
2023-05-15T07:53:00.434Z,2583.5
2023-05-15T07:54:00.442Z,2742.6
2023-05-15T07:55:00.434Z,3018
2023-05-15T07:56:00.452Z,3204.1
2023-05-15T07:57:00.466Z,3321.1
2023-05-15T07:58:00.436Z,3361
2023-05-15T07:59:00.477Z,3442.3
2023-05-15T08:00:00.491Z,3611.1
2023-05-15T08:01:00.437Z,3833.5
2023-05-15T08:02:00.459Z,3926.3
2023-05-15T08:03:00.718Z,4021.3
2023-05-15T08:04:00.627Z,4021.3
2023-05-15T08:05:00.455Z,3742.9
2023-05-15T08:06:00.471Z,3281.6
2023-05-15T08:07:00.465Z,2982.2
2023-05-15T08:08:00.453Z,3054.3
2023-05-15T08:09:00.451Z,3525.6
2023-05-15T08:10:00.467Z,4069.8
2023-05-15T08:11:00.457Z,4478.2
2023-05-15T08:12:00.465Z,4642
2023-05-15T08:13:00.452Z,4586.8
2023-05-15T08:14:00.560Z,4425
2023-05-15T08:15:00.486Z,4218.4
2023-05-15T08:16:00.535Z,3879.6
2023-05-15T08:17:00.453Z,3833.5
2023-05-15T08:18:00.544Z,3973.5
2023-05-15T08:19:00.541Z,4069.8
2023-05-15T08:20:00.469Z,4320.5
2023-05-15T08:21:01.306Z,4586.8
2023-05-15T08:22:00.461Z,4811.5
2023-05-15T08:23:00.484Z,4869.3
2023-05-15T08:24:00.844Z,4987.1
2023-05-15T08:25:00.492Z,5107.8
2023-05-15T08:26:00.475Z,5231.6
2023-05-15T08:27:00.474Z,5107.8
2023-05-15T08:28:00.461Z,5487.9
2023-05-15T08:29:00.671Z,5358.2
2023-05-15T08:30:00.495Z,4642
2023-05-15T08:31:00.531Z,4869.3
2023-05-15T08:32:00.472Z,4642
2023-05-15T08:33:00.531Z,4269.1
2023-05-15T08:34:00.476Z,3742.9
2023-05-15T08:35:00.474Z,3788
2023-05-15T08:36:00.510Z,3401.4
2023-05-15T08:37:00.484Z,3165.8
2023-05-15T08:38:00.480Z,2946.7
2023-05-15T08:39:00.516Z,2842.8
2023-05-15T08:40:00.527Z,2911.7
2023-05-15T08:41:00.488Z,3091.1
2023-05-15T08:42:00.506Z,3568
2023-05-15T08:43:00.488Z,4021.3
2023-05-15T08:44:00.508Z,4372.4
2023-05-15T08:45:00.500Z,4532.1
2023-05-15T08:46:00.483Z,4697.8
2023-05-15T08:47:00.598Z,4987.1
2023-05-15T08:48:00.560Z,5358.2
2023-05-15T08:49:00.548Z,5826.2
2023-05-15T08:50:00.619Z,6111.5
2023-05-15T08:51:00.514Z,6259.4
2023-05-15T08:52:00.530Z,6185
2023-05-15T08:53:00.492Z,5896.2
2023-05-15T08:54:00.497Z,5688.3
2023-05-15T08:55:00.517Z,5358.2
2023-05-15T08:56:00.516Z,5294.6
2023-05-15T08:57:00.506Z,5294.6
2023-05-15T08:58:00.504Z,5294.6
2023-05-15T08:59:00.623Z,5107.8
2023-05-15T09:00:00.580Z,5047.1
2023-05-15T09:01:00.526Z,5294.6
2023-05-15T09:02:00.600Z,5294.6
2023-05-15T09:03:00.645Z,5231.6
2023-05-15T09:04:00.535Z,5231.6
2023-05-15T09:05:00.510Z,4987.1
2023-05-15T09:06:00.507Z,4869.3
2023-05-15T09:07:00.521Z,4869.3
2023-05-15T09:08:00.524Z,4811.5
2023-05-15T09:09:00.511Z,4754.3
2023-05-15T09:10:00.518Z,4532.1
2023-05-15T09:11:00.533Z,4869.3
2023-05-15T09:12:00.537Z,4869.3
2023-05-15T09:13:00.520Z,4869.3
2023-05-15T09:14:00.521Z,5294.6
2023-05-15T09:15:00.596Z,5756.7
2023-05-15T09:16:00.536Z,6038.9
2023-05-15T09:17:00.604Z,5967.1
2023-05-15T09:18:00.611Z,5826.2
2023-05-15T09:19:00.724Z,5047.1
2023-05-15T09:20:00.584Z,4869.3
2023-05-15T09:21:00.546Z,4869.3
2023-05-15T09:22:00.537Z,5294.6
2023-05-15T09:23:00.533Z,5422.7
2023-05-15T09:24:00.540Z,5107.8
2023-05-15T09:25:00.543Z,4869.3
2023-05-15T09:26:00.536Z,4425
2023-05-15T09:27:00.538Z,4218.4
2023-05-15T09:28:00.550Z,3654.5
2023-05-15T09:29:00.545Z,3654.5
2023-05-15T09:30:00.591Z,3926.3
2023-05-15T09:31:00.578Z,3654.5
2023-05-15T09:32:00.585Z,3321.1
2023-05-15T09:33:00.604Z,3361
2023-05-15T09:34:00.556Z,4218.4
2023-05-15T09:35:00.557Z,4754.3
2023-05-15T09:36:00.556Z,4478.2
2023-05-15T09:37:00.554Z,4320.5
2023-05-15T09:38:00.564Z,4021.3
2023-05-15T09:39:00.564Z,4586.8
2023-05-15T09:40:00.619Z,4754.3
2023-05-15T09:41:00.556Z,4642
2023-05-15T09:42:00.589Z,4069.8
2023-05-15T09:43:00.557Z,4069.8
2023-05-15T09:44:00.585Z,4118.8
2023-05-15T09:45:00.565Z,3973.5
2023-05-15T09:46:00.622Z,4320.5
2023-05-15T09:47:00.643Z,4586.8
2023-05-15T09:48:00.699Z,5620.7
2023-05-15T09:49:00.594Z,6645.2
2023-05-15T09:50:00.567Z,7312.1
2023-05-15T09:51:00.572Z,6566.3
2023-05-15T09:52:00.596Z,6887.9
2023-05-15T09:53:00.585Z,7856.2
2023-05-15T09:54:00.567Z,8241
2023-05-15T09:55:00.598Z,7489.4
2023-05-15T09:56:00.569Z,7400.4
2023-05-15T09:57:00.583Z,9177.5
2023-05-15T09:58:00.580Z,8241
2023-05-15T09:59:00.571Z,8749
2023-05-15T10:00:00.598Z,8046.3
2023-05-15T10:01:00.571Z,8645
2023-05-15T10:02:00.615Z,7950.7
2023-05-15T10:03:00.626Z,8749
2023-05-15T10:04:00.678Z,10220.4
2023-05-15T10:05:00.646Z,8645
2023-05-15T10:06:00.610Z,8046.3
2023-05-15T10:07:00.601Z,7489.4
2023-05-15T10:08:00.582Z,6259.4
2023-05-15T10:09:00.588Z,6806
2023-05-15T10:10:00.645Z,6970.7
2023-05-15T10:11:00.624Z,8542.3
2023-05-15T10:12:00.589Z,8749
2023-05-15T10:13:00.577Z,6410.8
2023-05-15T10:14:00.594Z,6038.9
2023-05-15T10:15:00.591Z,6566.3
2023-05-15T10:16:00.642Z,8854.2
2023-05-15T10:17:00.596Z,7312.1
2023-05-15T10:18:00.621Z,7139.4
2023-05-15T10:19:02.802Z,6410.8
2023-05-15T10:20:00.679Z,6038.9
2023-05-15T10:21:00.602Z,7139.4
2023-05-15T10:22:00.615Z,8645
2023-05-15T10:23:00.639Z,7670.6
2023-05-15T10:24:00.618Z,6111.5
2023-05-15T10:25:00.603Z,6566.3
2023-05-15T10:26:00.594Z,7489.4
2023-05-15T10:27:00.598Z,8645
2023-05-15T10:28:00.627Z,8749
2023-05-15T10:29:00.617Z,7762.9
2023-05-15T10:30:00.668Z,8440.8
2023-05-15T10:31:00.633Z,9068.4
2023-05-15T10:32:00.612Z,9287.8
2023-05-15T10:33:00.660Z,6566.3
2023-05-15T10:34:00.614Z,5620.7
2023-05-15T10:35:00.607Z,4069.8
2023-05-15T10:36:00.638Z,3525.6
2023-05-15T10:37:00.619Z,2946.7
2023-05-15T10:38:00.609Z,2347.8
2023-05-15T10:39:00.612Z,2376
2023-05-15T10:40:00.636Z,2677.9
2023-05-15T10:41:15.968Z,3401.4
2023-05-15T10:42:00.634Z,3568
2023-05-15T10:43:00.614Z,3361
2023-05-15T10:44:00.614Z,3204.1
2023-05-15T10:45:00.631Z,2614.6
2023-05-15T10:46:00.631Z,1915.9
2023-05-15T10:47:00.670Z,1322.4
2023-05-15T10:48:00.681Z,1004.4
2023-05-15T10:49:00.654Z,946.1
2023-05-15T10:50:00.643Z,1145.6
2023-05-15T10:51:00.635Z,1354.4
2023-05-15T10:52:00.661Z,1640
2023-05-15T10:53:00.635Z,1544.8
2023-05-15T10:54:00.623Z,1472.7
2023-05-15T10:55:00.693Z,1601.3
2023-05-15T10:56:00.684Z,2108.2
2023-05-15T10:57:00.671Z,2522.4
2023-05-15T10:58:00.643Z,3018
2023-05-15T10:59:00.629Z,4021.3
2023-05-15T11:00:00.649Z,5107.8
2023-05-15T11:01:00.699Z,5553.9
2023-05-15T11:02:00.644Z,5231.6
2023-05-15T11:03:00.656Z,5358.2
2023-05-15T11:04:00.649Z,5358.2
2023-05-15T11:05:00.648Z,5231.6
2023-05-15T11:06:00.631Z,5047.1
2023-05-15T11:07:00.637Z,4869.3
2023-05-15T11:08:00.636Z,4532.1
2023-05-15T11:09:00.635Z,4269.1
2023-05-15T11:10:00.684Z,3973.5
2023-05-15T11:11:00.664Z,3654.5
2023-05-15T11:12:00.643Z,3568
2023-05-15T11:13:00.635Z,3165.8
2023-05-15T11:14:00.642Z,2911.7
2023-05-15T11:15:00.651Z,2710.1
2023-05-15T11:16:00.641Z,2522.4
2023-05-15T11:17:00.948Z,2433.5
2023-05-15T11:18:00.688Z,2376
2023-05-15T11:19:00.717Z,2265.1
2023-05-15T11:20:00.754Z,2133.6
2023-05-15T11:21:00.650Z,1985.8
2023-05-15T11:22:00.672Z,1826.4
2023-05-15T11:23:00.676Z,1699.9
2023-05-15T11:24:00.645Z,1659.7
2023-05-15T11:25:00.693Z,1659.7
2023-05-15T11:26:00.675Z,1620.5
2023-05-15T11:27:00.668Z,1601.3
2023-05-15T11:28:00.663Z,1508.3
2023-05-15T11:29:00.655Z,1387.2
2023-05-15T11:30:00.676Z,1275.8
2023-05-15T11:31:00.689Z,1245.7
2023-05-15T11:32:00.696Z,1159.4
2023-05-15T11:33:00.751Z,1079.1
2023-05-15T11:34:00.656Z,1145.6
2023-05-15T11:35:00.668Z,1066.3
2023-05-15T11:36:00.746Z,1028.7
2023-05-15T11:37:00.662Z,1079.1
2023-05-15T11:38:00.673Z,1159.4
2023-05-15T11:39:00.674Z,1260.7
2023-05-15T11:40:00.679Z,1275.8
2023-05-15T11:41:00.697Z,1338.3
2023-05-15T11:42:01.198Z,1387.2
2023-05-15T11:43:00.746Z,1403.9
2023-05-15T11:44:00.673Z,1437.9
2023-05-15T11:45:00.676Z,1490.4
2023-05-15T11:46:00.711Z,1544.8
2023-05-15T11:47:00.864Z,1640
2023-05-15T11:48:00.715Z,1741
2023-05-15T11:49:00.677Z,1848.4
2023-05-15T11:50:00.713Z,1962.2
2023-05-15T11:51:00.689Z,2034
2023-05-15T11:52:00.681Z,2133.6
2023-05-15T11:53:00.685Z,2211.5
2023-05-15T11:54:00.686Z,2292.3
2023-05-15T11:55:00.706Z,2376
2023-05-15T11:56:00.681Z,2492.4
2023-05-15T11:57:00.711Z,2646
2023-05-15T11:58:00.694Z,2809
2023-05-15T11:59:00.722Z,3018
2023-05-15T12:00:00.688Z,3204.1
2023-05-15T12:01:00.698Z,3401.4
2023-05-15T12:02:00.693Z,3611.1
2023-05-15T12:03:00.788Z,3833.5
2023-05-15T12:04:01.016Z,3973.5
2023-05-15T12:05:00.805Z,4118.8
2023-05-15T12:06:00.710Z,4218.4
2023-05-15T12:07:03.039Z,4372.4
2023-05-15T12:08:00.724Z,4425
2023-05-15T12:09:00.726Z,4478.2
2023-05-15T12:10:00.749Z,4425
2023-05-15T12:11:00.818Z,4269.1
2023-05-15T12:12:00.714Z,4021.3
2023-05-15T12:13:00.697Z,3742.9
2023-05-15T12:14:00.700Z,3442.3
2023-05-15T12:15:00.708Z,3165.8
2023-05-15T12:16:00.898Z,2982.2
2023-05-15T12:17:00.844Z,2877.1
2023-05-15T12:18:00.736Z,2877.1
2023-05-15T12:19:00.788Z,3018
2023-05-15T12:20:00.722Z,3742.9
2023-05-15T12:21:00.751Z,3973.5
2023-05-15T12:22:00.708Z,4269.1
2023-05-15T12:23:00.719Z,4320.5
2023-05-15T12:25:00.713Z,3833.5
2023-05-15T12:26:00.833Z,3442.3
2023-05-15T12:27:00.741Z,3361
2023-05-15T12:28:00.722Z,3525.6
2023-05-15T12:29:00.725Z,3788
2023-05-15T12:30:00.727Z,4021.3
2023-05-15T12:31:00.746Z,4168.3
2023-05-15T12:32:00.773Z,4269.1
2023-05-15T12:33:00.780Z,4269.1
2023-05-15T12:34:00.732Z,4320.5
2023-05-15T12:35:00.741Z,4320.5
2023-05-15T12:36:01.972Z,4218.4
2023-05-15T12:37:00.733Z,4269.1
2023-05-15T12:38:00.731Z,4269.1
2023-05-15T12:39:00.724Z,4218.4
2023-05-15T12:40:00.744Z,4218.4
2023-05-15T12:41:00.740Z,4218.4
2023-05-15T12:42:00.756Z,4218.4
2023-05-15T12:43:00.733Z,4218.4
2023-05-15T12:44:00.734Z,4269.1
2023-05-15T12:45:00.759Z,4320.5
2023-05-15T12:46:00.902Z,4320.5
2023-05-15T12:47:00.746Z,4269.1
2023-05-15T12:48:00.788Z,4320.5
2023-05-15T12:49:00.741Z,4320.5
2023-05-15T12:50:00.761Z,4320.5
2023-05-15T12:51:00.743Z,4218.4
2023-05-15T12:52:00.736Z,4372.4
2023-05-15T12:53:00.743Z,4372.4
2023-05-15T12:54:00.768Z,4372.4
2023-05-15T12:55:00.775Z,4425
2023-05-15T12:56:00.752Z,4269.1
2023-05-15T12:57:02.011Z,4425
2023-05-15T12:58:00.769Z,4478.2
2023-05-15T12:59:00.759Z,4532.1
2023-05-15T13:00:00.791Z,4532.1